Time;durP1;ratioP1;P1;durP2;ratioP2;P2;SDS_P1;SDS_P2;PMS_P1;PMS_P2;Temp;Humidity;BMP_temperature;BMP_pressure;BME280_temperature;BME280_humidity;BME280_pressure;Samples;Min_cycle;Max_cycle;Signal;HPM_P1;HPM_P2
2024/01/03 00:01:12;;;;;;;19.20;13.40;;;;;;;3.95;94.96;98624.53;104731;1292;67158;-55
2024/01/03 00:03:58;;;;;;;17.80;12.50;;;;;;;3.94;94.99;98616.54;104759;1291;71206;-55
2024/01/03 00:06:48;;;;;;;19.20;13.40;;;;;;;3.94;94.93;98613.48;104619;1291;61608;-55
2024/01/03 00:09:35;;;;;;;17.60;12.80;;;;;;;3.93;95.10;98611.61;104699;1291;61292;-55
2024/01/03 00:12:23;;;;;;;;;;;;;;;3.92;94.95;98608.21;104745;1291;76611;-54
2024/01/03 00:15:36;;;;;;;21.70;13.60;;;;;;;3.92;95.18;98601.41;104736;1295;67244;-55
2024/01/03 00:18:34;;;;;;;18.40;13.70;;;;;;;3.92;95.30;98598.51;104560;1291;71369;-56
2024/01/03 00:21:25;;;;;;;18.30;14.20;;;;;;;3.91;95.15;98588.81;104705;1292;61279;-55
2024/01/03 00:24:16;;;;;;;18.30;13.60;;;;;;;3.91;95.13;98590.69;106087;1292;58763;-57
2024/01/03 00:27:02;;;;;;;17.40;13.00;;;;;;;3.91;95.30;98585.56;106061;1291;72241;-56
2024/01/03 00:29:53;;;;;;;16.50;12.60;;;;;;;3.93;95.36;98579.23;106078;1291;67265;-56
2024/01/03 00:32:39;;;;;;;15.90;12.10;;;;;;;3.94;95.26;98574.08;106062;1291;71432;-56
2024/01/03 00:35:25;;;;;;;17.80;11.30;;;;;;;3.97;95.16;98569.58;106081;1291;59461;-57
2024/01/03 00:38:11;;;;;;;16.10;12.00;;;;;;;4.00;95.15;98567.98;105730;1291;61269;-56
2024/01/03 00:40:58;;;;;;;15.60;11.30;;;;;;;4.03;95.14;98564.17;104705;1292;75017;-53
2024/01/03 00:43:44;;;;;;;13.50;10.20;;;;;;;4.06;95.36;98558.66;104767;1292;67311;-54
2024/01/03 00:46:31;;;;;;;;;;;;;;;4.06;95.33;98558.98;104729;1292;75509;-55
2024/01/03 00:49:18;;;;;;;12.70;10.50;;;;;;;4.06;95.46;98551.83;104737;1291;61485;-55
2024/01/03 00:52:05;;;;;;;18.10;11.70;;;;;;;4.07;95.44;98547.56;104697;1292;61209;-53
2024/01/03 00:54:51;;;;;;;16.30;12.10;;;;;;;4.07;95.52;98543.80;106048;1291;73211;-56
2024/01/03 00:57:37;;;;;;;16.50;11.90;;;;;;;4.08;95.48;98538.84;106101;1291;67950;-55
2024/01/03 01:00:23;;;;;;;13.50;10.50;;;;;;;4.09;95.53;98534.90;105400;1292;73031;-53
2024/01/03 01:03:10;;;;;;;11.50;9.30;;;;;;;4.10;95.47;98533.15;104753;1292;61197;-54
2024/01/03 01:05:56;;;;;;;16.40;11.40;;;;;;;4.12;95.41;98530.39;106101;1291;59959;-56
2024/01/03 01:08:42;;;;;;;13.80;10.30;;;;;;;4.13;95.49;98528.48;106108;1291;73413;-56
2024/01/03 01:11:28;;;;;;;15.10;10.90;;;;;;;4.14;95.45;98526.41;106081;1291;67479;-57
2024/01/03 01:14:14;;;;;;;12.90;9.90;;;;;;;4.16;95.35;98521.90;105956;1292;71376;-56
2024/01/03 01:17:00;;;;;;;15.10;10.70;;;;;;;4.19;95.39;98516.02;106077;1291;58993;-56
2024/01/03 01:19:46;;;;;;;11.50;9.40;;;;;;;4.21;95.54;98512.06;106062;1292;59965;-56
2024/01/03 01:22:32;;;;;;;12.90;10.40;;;;;;;4.22;95.79;98507.77;104956;1295;73454;-56
2024/01/03 01:25:19;;;;;;;14.20;10.30;;;;;;;4.24;95.72;98503.98;104755;1291;67111;-56
2024/01/03 01:28:05;;;;;;;12.60;9.70;;;;;;;4.25;95.74;98504.13;104722;1291;71274;-53
2024/01/03 01:30:51;;;;;;;12.70;10.80;;;;;;;4.25;95.96;98501.21;104726;1291;61269;-55
2024/01/03 01:33:37;;;;;;;13.10;11.30;;;;;;;4.24;95.82;98495.09;104746;1292;61339;-54
2024/01/03 01:36:24;;;;;;;12.60;10.90;;;;;;;4.25;95.82;98491.33;104693;1291;73531;-53
2024/01/03 01:39:10;;;;;;;15.40;11.60;;;;;;;4.24;95.93;98481.81;104725;1291;69940;-54
2024/01/03 01:41:56;;;;;;;15.70;11.90;;;;;;;4.24;95.92;98476.85;104631;1292;71290;-54
2024/01/03 01:44:43;;;;;;;15.40;11.20;;;;;;;4.23;95.92;98473.63;104715;1291;61167;-56
2024/01/03 01:47:29;;;;;;;14.80;11.70;;;;;;;4.23;95.93;98472.09;104727;1292;61369;-55
2024/01/03 01:50:17;;;;;;;13.90;11.00;;;;;;;4.24;95.90;98467.65;104723;1291;75947;-55
2024/01/03 01:53:03;;;;;;;16.30;12.70;;;;;;;4.25;95.91;98463.19;105458;1291;67542;-54
2024/01/03 01:55:50;;;;;;;15.80;12.90;;;;;;;4.26;95.94;98460.79;106085;1291;71399;-57
2024/01/03 01:58:43;;;;;;;12.60;11.20;;;;;;;4.26;95.92;98453.95;106035;1291;59275;-56
2024/01/03 02:01:29;;;;;;;14.40;11.20;;;;;;;4.29;95.88;98449.80;105211;1291;61179;-55
2024/01/03 02:04:16;;;;;;;13.90;11.70;;;;;;;4.31;96.17;98445.98;104708;1292;78348;-55
2024/01/03 02:07:04;;;;;;;12.80;11.50;;;;;;;4.32;96.11;98440.33;106090;1291;67229;-57
2024/01/03 02:09:52;;;;;;;14.20;11.80;;;;;;;4.36;96.94;98440.23;106036;1291;71391;-56
2024/01/03 02:12:38;;;;;;;12.50;10.60;;;;;;;4.37;96.73;98435.60;106064;1291;58974;-56
2024/01/03 02:15:27;;;;;;;12.40;11.00;;;;;;;4.39;96.76;98429.75;106100;1291;59024;-57
2024/01/03 02:18:14;;;;;;;12.40;10.50;;;;;;;4.42;96.46;98428.31;106032;1291;74378;-56
2024/01/03 02:21:01;;;;;;;13.90;11.10;;;;;;;4.45;96.31;98427.54;106002;1291;67279;-57
2024/01/03 02:23:47;;;;;;;15.10;11.30;;;;;;;4.48;96.36;98423.55;105941;1291;71405;-54
2024/01/03 02:26:33;;;;;;;12.10;10.80;;;;;;;4.52;96.31;98420.37;104716;1291;61258;-55
2024/01/03 02:29:20;;;;;;;17.10;11.70;;;;;;;4.55;96.29;98415.52;104699;1291;61264;-52
2024/01/03 02:32:06;;;;;;;12.30;10.90;;;;;;;4.56;96.34;98412.90;104696;1291;74143;-55
2024/01/03 02:34:52;;;;;;;16.80;12.30;;;;;;;4.58;96.34;98408.45;104708;1292;70047;-54
2024/01/03 02:37:38;;;;;;;14.00;12.50;;;;;;;4.58;96.31;98403.66;104723;1294;71139;-55
2024/01/03 02:40:25;;;;;;;15.00;12.80;;;;;;;4.58;96.38;98400.77;104729;1291;61345;-55
2024/01/03 02:43:11;;;;;;;;;;;;;;;4.59;96.33;98400.53;104728;1292;61726;-56
2024/01/03 02:45:57;;;;;;;17.30;13.10;;;;;;;4.59;96.80;98395.78;104700;1296;73912;-56
2024/01/03 02:48:43;;;;;;;;;;;;;;;4.59;96.62;98392.03;104602;1292;70038;-54
2024/01/03 02:51:30;;;;;;;17.00;13.70;;;;;;;4.59;96.46;98387.76;104709;1295;72668;-56
2024/01/03 02:54:16;;;;;;;16.30;14.00;;;;;;;4.60;96.41;98385.02;104723;1291;61253;-56
2024/01/03 02:57:03;;;;;;;14.50;13.00;;;;;;;4.60;96.47;98380.05;104703;1291;62933;-55
2024/01/03 02:59:49;;;;;;;16.90;13.70;;;;;;;4.61;96.38;98374.89;105124;1291;176385;-57
2024/01/03 03:02:36;;;;;;;15.50;13.00;;;;;;;4.62;96.47;98365.66;106045;1291;68427;-57
2024/01/03 03:05:21;;;;;;;17.70;13.80;;;;;;;4.63;96.44;98361.36;106053;1291;72536;-57
2024/01/03 03:08:08;;;;;;;15.50;13.40;;;;;;;4.66;96.53;98357.36;106078;1291;59235;-56
2024/01/03 03:10:54;;;;;;;15.50;13.70;;;;;;;4.69;97.02;98357.23;106015;1291;58959;-55
2024/01/03 03:13:40;;;;;;;14.00;12.50;;;;;;;4.72;97.32;98353.41;106049;1291;74178;-56
2024/01/03 03:16:26;;;;;;;13.00;11.70;;;;;;;4.75;97.31;98346.66;106086;1291;67486;-56
2024/01/03 03:19:12;;;;;;;14.10;11.90;;;;;;;4.78;97.10;98344.69;106081;1291;71323;-56
2024/01/03 03:21:59;;;;;;;12.80;11.50;;;;;;;4.82;96.80;98343.39;106043;1292;58870;-56
2024/01/03 03:24:45;;;;;;;16.00;12.50;;;;;;;4.85;97.24;98338.35;106069;1291;58988;-57
2024/01/03 03:27:31;;;;;;;12.60;11.20;;;;;;;4.87;97.07;98337.08;106073;1291;73349;-56
2024/01/03 03:30:17;;;;;;;14.10;12.00;;;;;;;4.90;97.70;98334.10;106077;1292;68414;-56
2024/01/03 03:33:04;;;;;;;12.30;11.00;;;;;;;4.92;97.68;98334.38;106041;1292;71202;-55
2024/01/03 03:35:50;;;;;;;14.20;11.50;;;;;;;4.94;97.96;98331.42;106046;1291;59226;-57
2024/01/03 03:38:36;;;;;;;14.50;11.70;;;;;;;4.96;98.13;98333.26;106078;1291;59085;-57
2024/01/03 03:41:23;;;;;;;14.70;11.50;;;;;;;4.97;98.52;98337.98;106059;1291;74804;-56
2024/01/03 03:44:09;;;;;;;14.80;12.90;;;;;;;4.96;99.42;98335.80;106071;1291;67283;-56
2024/01/03 03:46:55;;;;;;;17.40;13.20;;;;;;;4.98;99.01;98328.58;106084;1290;71853;-57
2024/01/03 03:49:41;;;;;;;;;;;;;;;4.98;99.00;98333.00;106058;1291;59032;-57
2024/01/03 03:52:27;;;;;;;13.80;11.30;;;;;;;4.97;99.86;98333.90;106070;1291;59230;-56
2024/01/03 03:55:14;;;;;;;13.80;11.50;;;;;;;4.95;99.99;98328.81;106081;1291;73413;-57
2024/01/03 03:58:00;;;;;;;13.10;11.90;;;;;;;4.96;99.91;98329.31;106051;1291;67181;-57
2024/01/03 04:00:46;;;;;;;13.00;11.00;;;;;;;4.97;99.83;98328.09;106102;1290;71152;-57
2024/01/03 04:03:32;;;;;;;14.40;12.00;;;;;;;4.98;99.61;98321.22;106071;1291;58919;-57
2024/01/03 04:06:18;;;;;;;14.90;12.40;;;;;;;5.00;99.41;98317.23;106068;1291;58977;-56
2024/01/03 04:09:04;;;;;;;13.50;11.50;;;;;;;5.02;99.27;98314.97;106063;1292;76620;-57
2024/01/03 04:11:50;;;;;;;12.60;11.20;;;;;;;5.02;99.43;98313.11;106038;1291;67490;-56
2024/01/03 04:14:40;;;;;;;12.00;10.80;;;;;;;5.01;99.78;98316.35;106080;1291;72998;-56
2024/01/03 04:17:25;;;;;;;12.90;11.60;;;;;;;5.03;99.47;98311.87;106065;1292;59074;-57
2024/01/03 04:20:12;;;;;;;14.00;12.50;;;;;;;5.02;99.62;98306.45;106045;1291;59336;-56
2024/01/03 04:22:58;;;;;;;14.60;11.70;;;;;;;5.02;99.41;98303.70;106069;1291;74444;-56
2024/01/03 04:25:48;;;;;;;13.40;11.90;;;;;;;5.03;99.11;98289.66;106079;1291;69008;-57
2024/01/03 04:28:34;;;;;;;12.60;10.90;;;;;;;5.05;98.85;98289.44;106060;1291;71399;-56
2024/01/03 04:31:20;;;;;;;11.60;10.40;;;;;;;5.07;99.98;98289.02;104692;1291;61227;-55
2024/01/03 04:34:06;;;;;;;;;;;;;;;5.10;99.61;98276.98;104722;1291;61197;-57
2024/01/03 04:36:52;;;;;;;11.80;10.60;;;;;;;5.10;99.90;98279.02;104732;1291;73279;-56
2024/01/03 04:39:38;;;;;;;;;;;;;;;5.09;100.00;98277.85;104733;1291;67149;-56
2024/01/03 04:42:25;;;;;;;;;;;;;;;5.11;99.63;98281.91;104723;1291;71192;-55
2024/01/03 04:45:11;;;;;;;14.20;11.70;;;;;;;5.10;99.86;98276.30;104720;1294;60066;-55
2024/01/03 04:47:57;;;;;;;13.90;11.80;;;;;;;5.09;100.00;98282.30;104716;1291;62041;-56
2024/01/03 04:50:43;;;;;;;14.40;12.90;;;;;;;5.09;100.00;98286.74;104685;1291;73262;-54
2024/01/03 04:53:31;;;;;;;17.60;12.90;;;;;;;5.09;99.93;98290.66;104754;1291;69954;-56
2024/01/03 04:56:18;;;;;;;17.00;14.00;;;;;;;5.08;100.00;98288.48;104784;1291;71282;-56
2024/01/03 04:59:04;;;;;;;18.90;13.90;;;;;;;5.08;99.96;98286.11;104698;1291;61160;-55
2024/01/03 05:01:58;;;;;;;18.90;13.90;;;;;;;5.08;100.00;98286.94;45421;1294;10002433;-57
2024/01/03 05:04:54;;;;;;;13.10;11.70;;;;;;;5.10;99.72;98280.23;105150;1292;64268;-55
2024/01/03 05:07:41;;;;;;;14.80;11.20;;;;;;;5.12;100.00;98277.77;104782;1294;62408;-56
2024/01/03 05:10:27;;;;;;;;;;;;;;;5.14;99.89;98276.17;104713;1291;73276;-55
2024/01/03 05:13:13;;;;;;;;;;;;;;;5.15;99.84;98282.28;104765;1291;67381;-55
2024/01/03 05:15:59;;;;;;;12.90;10.30;;;;;;;5.17;99.41;98279.48;104689;1291;70136;-56
2024/01/03 05:18:46;;;;;;;12.30;11.00;;;;;;;5.20;99.26;98282.65;104685;1292;61337;-55
2024/01/03 05:21:32;;;;;;;;;;;;;;;5.22;99.17;98279.81;104673;1292;61350;-56
2024/01/03 05:24:19;;;;;;;44.00;25.00;;;;;;;5.24;99.07;98280.61;104717;1291;72216;-55
2024/01/03 05:27:06;;;;;;;52.40;29.10;;;;;;;5.23;98.84;98282.84;104712;1291;67248;-55
2024/01/03 05:29:52;;;;;;;42.70;25.70;;;;;;;5.25;99.07;98280.73;104707;1295;73134;-55
2024/01/03 05:32:38;;;;;;;26.10;18.80;;;;;;;5.28;99.10;98281.31;104735;1291;61161;-57
2024/01/03 05:35:24;;;;;;;15.50;12.80;;;;;;;5.31;98.92;98278.83;104652;1291;61189;-55
2024/01/03 05:38:11;;;;;;;19.00;15.10;;;;;;;5.35;99.01;98279.23;104699;1292;75970;-56
2024/01/03 05:40:57;;;;;;;21.20;15.70;;;;;;;5.38;98.94;98282.73;104723;1291;67180;-56
2024/01/03 05:43:43;;;;;;;35.60;18.40;;;;;;;5.40;98.85;98284.72;104713;1294;71494;-56
2024/01/03 05:46:30;;;;;;;22.70;16.70;;;;;;;5.41;98.83;98276.66;104659;1292;60896;-55
2024/01/03 05:49:16;;;;;;;;;;;;;;;5.43;98.82;98274.02;104744;1291;61735;-55
2024/01/03 05:52:03;;;;;;;18.80;14.40;;;;;;;5.46;98.69;98283.33;104591;1291;74314;-55
2024/01/03 05:54:49;;;;;;;15.00;12.80;;;;;;;5.46;98.68;98285.54;105486;1292;68609;-55
2024/01/03 05:57:36;;;;;;;17.10;12.70;;;;;;;5.47;98.73;98291.32;104657;1291;74072;-56
2024/01/03 06:00:22;;;;;;;23.80;14.80;;;;;;;5.51;98.58;98293.75;104682;1291;61317;-56
2024/01/03 06:03:08;;;;;;;20.50;15.30;;;;;;;5.53;98.59;98294.70;104583;1291;61330;-57
2024/01/03 06:05:54;;;;;;;20.50;15.10;;;;;;;5.55;98.79;98295.99;104604;1291;73324;-54
2024/01/03 06:08:41;;;;;;;24.30;14.50;;;;;;;5.57;98.81;98295.94;104597;1291;68323;-56
2024/01/03 06:11:27;;;;;;;20.70;15.40;;;;;;;5.59;99.03;98301.67;104649;1291;72275;-56
2024/01/03 06:14:13;;;;;;;23.00;14.30;;;;;;;5.60;98.92;98301.14;104660;1291;61161;-57
2024/01/03 06:17:00;;;;;;;21.40;16.30;;;;;;;5.59;98.87;98299.30;104570;1294;61179;-57
2024/01/03 06:19:46;;;;;;;21.70;16.70;;;;;;;5.61;99.10;98303.14;104688;1291;73274;-56
2024/01/03 06:22:32;;;;;;;21.90;16.90;;;;;;;5.64;99.23;98304.94;104654;1291;67301;-57
2024/01/03 06:25:18;;;;;;;;;;;;;;;5.68;99.78;98307.72;100865;1294;5003802;-59
2024/01/03 06:28:05;;;;;;;;;;;;;;;5.74;100.00;98307.81;104667;1296;60196;-56
2024/01/03 06:30:51;;;;;;;18.90;13.20;;;;;;;5.81;99.98;98314.94;104659;1292;60009;-57
2024/01/03 06:33:38;;;;;;;16.20;12.50;;;;;;;5.87;99.70;98321.55;104746;1295;76870;-57
2024/01/03 06:36:24;;;;;;;13.60;11.50;;;;;;;5.94;100.00;98323.42;104703;1291;67279;-56
2024/01/03 06:39:10;;;;;;;16.10;12.70;;;;;;;6.00;99.82;98328.68;104669;1294;72181;-56
2024/01/03 06:41:57;;;;;;;14.30;12.10;;;;;;;6.04;99.77;98329.76;104712;1295;61180;-55
2024/01/03 06:44:43;;;;;;;14.70;10.90;;;;;;;6.09;99.98;98333.00;104713;1291;62801;-56
2024/01/03 06:47:31;;;;;;;;;;;;;;;6.17;100.00;98337.35;104679;1291;73355;-56
2024/01/03 06:50:17;;;;;;;8.10;7.40;;;;;;;6.26;100.00;98344.00;104701;1291;67699;-56
2024/01/03 06:53:04;;;;;;;7.90;7.20;;;;;;;6.34;100.00;98342.35;104640;1297;73128;-55
2024/01/03 06:55:50;;;;;;;7.00;6.40;;;;;;;6.42;100.00;98348.59;104685;1291;61313;-54
2024/01/03 06:58:36;;;;;;;7.50;6.00;;;;;;;6.53;100.00;98353.67;104679;1291;61116;-57
2024/01/03 07:01:23;;;;;;;6.70;5.70;;;;;;;6.59;100.00;98349.15;104720;1292;73318;-57
2024/01/03 07:04:09;;;;;;;5.80;5.30;;;;;;;6.66;100.00;98353.86;104698;1292;68145;-56
2024/01/03 07:06:57;;;;;;;5.50;4.10;;;;;;;6.72;100.00;98356.39;104672;1292;72081;-56
2024/01/03 07:09:44;;;;;;;4.50;3.30;;;;;;;6.82;100.00;98357.73;105545;1291;58936;-56
2024/01/03 07:12:29;;;;;;;;;;;;;;;6.89;100.00;98360.04;105783;1292;59083;-56
2024/01/03 07:15:17;;;;;;;4.40;2.80;;;;;;;6.96;100.00;98365.23;104754;1291;73158;-56
2024/01/03 07:18:04;;;;;;;5.70;2.40;;;;;;;7.03;100.00;98370.81;104736;1291;67188;-57
2024/01/03 07:20:50;;;;;;;4.00;2.80;;;;;;;7.09;100.00;98370.91;104663;1292;73050;-56
2024/01/03 07:23:36;;;;;;;2.30;1.80;;;;;;;7.15;100.00;98369.34;104687;1291;61656;-56
2024/01/03 07:26:22;;;;;;;2.50;1.80;;;;;;;7.17;100.00;98366.65;104665;1291;61179;-57
2024/01/03 07:29:09;;;;;;;4.80;1.70;;;;;;;7.21;100.00;98367.88;104748;1291;76079;-56
2024/01/03 07:32:06;;;;;;;4.80;1.70;;;;;;;7.26;100.00;98371.79;39791;1295;20069082;-58
2024/01/03 07:34:52;;;;;;;2.90;1.70;;;;;;;7.28;100.00;98373.41;104671;1291;78291;-56
2024/01/03 07:37:38;;;;;;;2.40;1.50;;;;;;;7.30;100.00;98374.54;104714;1291;67196;-56
2024/01/03 07:40:25;;;;;;;2.60;1.40;;;;;;;7.36;100.00;98375.52;104689;1292;71215;-56
2024/01/03 07:43:11;;;;;;;2.30;1.40;;;;;;;7.40;100.00;98377.93;104738;1291;61247;-57
2024/01/03 07:45:58;;;;;;;2.30;1.50;;;;;;;7.43;100.00;98382.97;104712;1291;60391;-57
2024/01/03 07:48:44;;;;;;;1.80;1.50;;;;;;;7.48;100.00;98382.23;104743;1291;75980;-56
2024/01/03 07:51:30;;;;;;;3.30;1.20;;;;;;;7.50;100.00;98384.88;104706;1291;67982;-56
2024/01/03 07:54:17;;;;;;;4.00;1.30;;;;;;;7.52;100.00;98387.20;104670;1291;75014;-57
2024/01/03 07:57:04;;;;;;;2.30;1.70;;;;;;;7.53;100.00;98387.18;104729;1291;61377;-57
2024/01/03 07:59:51;;;;;;;3.70;2.10;;;;;;;7.54;100.00;98388.67;104735;1291;61148;-57
2024/01/03 08:02:37;;;;;;;2.90;2.10;;;;;;;7.55;100.00;98388.83;104701;1291;73223;-56
2024/01/03 08:05:24;;;;;;;2.60;1.70;;;;;;;7.56;100.00;98391.34;104696;1291;69799;-56
2024/01/03 08:08:10;;;;;;;2.60;1.70;;;;;;;7.56;100.00;98389.30;104552;1291;71081;-57
2024/01/03 08:10:57;;;;;;;3.00;1.80;;;;;;;7.56;100.00;98392.21;104734;1291;61173;-56
2024/01/03 08:13:44;;;;;;;3.30;1.40;;;;;;;7.56;100.00;98388.58;104666;1296;61135;-57
2024/01/03 08:16:30;;;;;;;5.80;1.60;;;;;;;7.59;100.00;98394.33;104712;1291;74863;-56
2024/01/03 08:19:16;;;;;;;3.90;1.60;;;;;;;7.60;100.00;98393.77;104478;1291;324435;-57
2024/01/03 08:22:03;;;;;;;3.50;1.80;;;;;;;7.61;100.00;98396.61;104670;1291;71338;-56
2024/01/03 08:24:49;;;;;;;4.10;1.50;;;;;;;7.65;100.00;98397.85;104661;1291;61335;-57
2024/01/03 08:27:36;;;;;;;2.10;1.60;;;;;;;7.69;100.00;98396.15;104713;1291;61277;-57
2024/01/03 08:30:22;;;;;;;5.30;1.20;;;;;;;7.74;100.00;98394.77;104715;1291;75237;-56
2024/01/03 08:33:09;;;;;;;2.20;1.00;;;;;;;7.78;100.00;98397.84;104714;1291;66792;-56
2024/01/03 08:35:55;;;;;;;3.70;1.50;;;;;;;7.80;100.00;98397.40;104713;1291;71164;-56
2024/01/03 08:38:42;;;;;;;5.20;1.40;;;;;;;7.82;100.00;98400.54;104732;1291;61303;-57
2024/01/03 08:41:28;;;;;;;2.10;1.40;;;;;;;7.85;100.00;98402.14;104715;1296;59762;-56
2024/01/03 08:44:15;;;;;;;3.00;1.10;;;;;;;7.87;100.00;98402.75;104729;1292;73717;-56
2024/01/03 08:47:01;;;;;;;2.80;1.60;;;;;;;7.91;100.00;98409.48;104695;1291;69897;-57
2024/01/03 08:49:47;;;;;;;2.40;1.40;;;;;;;7.93;100.00;98411.11;104633;1291;71325;-56
2024/01/03 08:52:34;;;;;;;4.60;1.00;;;;;;;7.95;100.00;98413.61;104680;1291;61379;-57
2024/01/03 08:55:20;;;;;;;2.60;1.30;;;;;;;7.95;100.00;98414.95;104755;1291;61234;-57
2024/01/03 08:58:06;;;;;;;8.00;1.50;;;;;;;7.96;100.00;98416.45;104636;1292;76117;-57
2024/01/03 09:00:53;;;;;;;2.50;1.30;;;;;;;7.96;100.00;98421.08;104718;1292;67262;-56
2024/01/03 09:03:39;;;;;;;2.60;1.20;;;;;;;7.97;100.00;98424.65;104736;1292;71083;-55
2024/01/03 09:06:25;;;;;;;2.50;1.40;;;;;;;7.99;100.00;98432.66;104701;1291;61241;-56
2024/01/03 09:09:11;;;;;;;6.50;1.80;;;;;;;8.00;100.00;98428.16;104719;1291;61259;-56
2024/01/03 09:11:58;;;;;;;3.90;1.60;;;;;;;8.02;100.00;98432.01;104721;1291;73997;-56
2024/01/03 09:14:44;;;;;;;6.00;1.40;;;;;;;8.04;100.00;98434.67;104721;1292;69452;-56
2024/01/03 09:17:30;;;;;;;1.40;0.90;;;;;;;8.08;100.00;98436.26;104697;1291;71293;-57
2024/01/03 09:20:17;;;;;;;1.60;1.40;;;;;;;8.12;100.00;98439.67;104668;1292;61144;-56
2024/01/03 09:23:04;;;;;;;2.50;1.40;;;;;;;8.17;100.00;98440.30;104692;1291;61372;-57
2024/01/03 09:25:51;;;;;;;28.60;5.60;;;;;;;8.28;100.00;98442.80;104710;1291;73548;-57
2024/01/03 09:28:39;;;;;;;2.20;0.90;;;;;;;8.34;100.00;98445.96;104716;1291;69625;-57
2024/01/03 09:31:25;;;;;;;2.90;1.20;;;;;;;8.39;100.00;98450.08;104751;1291;71518;-56
2024/01/03 09:34:11;;;;;;;6.30;1.30;;;;;;;8.40;100.00;98454.50;104721;1292;61463;-57
2024/01/03 09:36:57;;;;;;;;;;;;;;;8.43;100.00;98457.11;104747;1292;61656;-57
2024/01/03 09:39:44;;;;;;;;;;;;;;;8.45;100.00;98464.23;104730;1292;73552;-57
2024/01/03 09:42:30;;;;;;;;;;;;;;;8.45;100.00;98462.69;104749;1291;67430;-57
2024/01/03 09:45:17;;;;;;;4.50;1.20;;;;;;;8.45;100.00;98464.55;104697;1291;72127;-56
2024/01/03 09:48:05;;;;;;;3.20;1.00;;;;;;;8.47;100.00;98464.46;104737;1292;61156;-57
2024/01/03 09:50:51;;;;;;;1.60;1.00;;;;;;;8.51;100.00;98463.61;91019;1291;10002330;-56
2024/01/03 09:53:40;;;;;;;3.00;1.30;;;;;;;8.59;100.00;98462.94;104731;1291;71259;-56
2024/01/03 09:56:26;;;;;;;3.40;1.10;;;;;;;8.69;99.94;98464.23;105074;1291;61291;-56
2024/01/03 09:59:17;;;;;;;4.10;0.90;;;;;;;8.70;99.70;98464.55;104673;1291;61136;-57
2024/01/03 10:02:06;;;;;;;3.30;1.00;;;;;;;8.70;99.53;98465.58;105688;1291;73179;-57
2024/01/03 10:04:53;;;;;;;3.00;1.20;;;;;;;8.68;98.83;98469.78;104697;1291;67278;-56
2024/01/03 10:07:40;;;;;;;3.40;1.50;;;;;;;8.68;99.32;98472.02;105917;1291;71494;-57
2024/01/03 10:10:33;;;;;;;4.40;1.20;;;;;;;8.65;99.38;98474.21;104697;1291;61286;-56
2024/01/03 10:13:20;;;;;;;2.80;1.20;;;;;;;8.63;99.24;98476.52;104754;1291;61284;-56
2024/01/03 10:16:07;;;;;;;3.30;1.30;;;;;;;8.62;98.91;98480.85;104563;1291;72213;-56
2024/01/03 10:19:12;;;;;;;3.30;1.20;;;;;;;8.59;98.62;98480.81;104720;1291;67326;-56
2024/01/03 10:22:01;;;;;;;3.70;1.60;;;;;;;8.57;99.12;98486.37;104565;1292;71355;-56
2024/01/03 10:24:48;;;;;;;5.20;2.20;;;;;;;8.52;99.13;98485.20;104761;1291;61263;-55
2024/01/03 10:27:34;;;;;;;4.00;1.70;;;;;;;8.48;99.17;98487.43;104759;1292;61300;-55
2024/01/03 10:30:21;;;;;;;3.70;1.50;;;;;;;8.47;99.31;98483.88;104747;1291;75333;-53
2024/01/03 10:33:09;;;;;;;3.50;1.50;;;;;;;8.47;99.48;98481.16;104710;1291;67324;-57
2024/01/03 10:35:56;;;;;;;4.30;1.50;;;;;;;8.45;99.43;98480.02;104704;1291;71381;-54
2024/01/03 10:38:43;;;;;;;6.30;2.20;;;;;;;8.43;99.39;98480.62;104706;1291;61272;-57
2024/01/03 10:41:31;;;;;;;3.80;1.00;;;;;;;8.42;99.58;98483.41;104727;1291;61383;-56
2024/01/03 10:44:19;;;;;;;3.30;0.80;;;;;;;8.42;99.64;98482.89;104704;1292;73272;-57
2024/01/03 10:47:05;;;;;;;1.80;0.90;;;;;;;8.43;99.60;98481.81;104768;1291;68537;-55
2024/01/03 10:49:51;;;;;;;5.10;1.20;;;;;;;8.43;99.54;98482.87;104711;1291;72125;-56
2024/01/03 10:52:43;;;;;;;4.30;1.70;;;;;;;8.40;99.50;98481.62;104726;1291;61225;-57
2024/01/03 10:55:37;;;;;;;1.90;1.10;;;;;;;8.35;99.38;98479.39;104724;1291;61447;-56
2024/01/03 10:58:24;;;;;;;5.20;1.20;;;;;;;8.34;99.35;98477.22;104495;1292;308648;-56
2024/01/03 11:01:11;;;;;;;3.80;1.00;;;;;;;8.38;99.56;98480.99;104733;1291;67400;-57
2024/01/03 11:04:04;;;;;;;3.70;1.00;;;;;;;8.43;99.44;98477.17;104688;1292;73671;-56
2024/01/03 11:07:13;;;;;;;4.60;1.50;;;;;;;8.45;99.42;98476.59;104732;1292;61231;-56
2024/01/03 11:10:00;;;;;;;3.70;1.00;;;;;;;8.47;99.36;98474.27;104727;1292;62026;-55
2024/01/03 11:12:46;;;;;;;4.10;1.20;;;;;;;8.48;99.16;98474.23;104731;1291;73144;-57
2024/01/03 11:15:32;;;;;;;4.60;1.40;;;;;;;8.47;99.20;98474.44;104674;1292;67365;-53
2024/01/03 11:18:40;;;;;;;6.90;1.30;;;;;;;8.46;99.19;98472.94;104710;1292;75139;-56
2024/01/03 11:21:28;;;;;;;3.30;1.40;;;;;;;8.43;98.99;98469.11;104734;1291;61331;-56
2024/01/03 11:24:21;;;;;;;3.30;1.50;;;;;;;8.43;98.99;98470.65;104709;1291;61040;-57
2024/01/03 11:27:07;;;;;;;2.10;1.30;;;;;;;8.44;99.02;98468.58;104722;1291;73197;-57
2024/01/03 11:29:54;;;;;;;5.00;1.30;;;;;;;8.44;98.95;98469.24;104714;1291;68687;-56
2024/01/03 11:32:40;;;;;;;;;;;;;;;8.45;98.83;98466.80;106110;1291;71081;-57
2024/01/03 11:35:46;;;;;;;1.80;1.20;;;;;;;8.46;99.02;98469.84;104932;1292;61171;-56
2024/01/03 11:38:43;;;;;;;3.40;1.60;;;;;;;8.48;99.00;98464.79;104717;1292;61183;-54
2024/01/03 11:41:30;;;;;;;11.10;1.50;;;;;;;8.51;99.15;98458.98;104712;1291;77127;-56
2024/01/03 11:44:20;;;;;;;3.40;1.60;;;;;;;8.52;98.97;98456.21;104743;1295;67258;-57
2024/01/03 11:47:06;;;;;;;4.20;1.80;;;;;;;8.59;99.22;98456.41;104731;1292;74868;-62
2024/01/03 11:49:57;;;;;;;3.90;1.70;;;;;;;8.65;99.12;98454.61;104600;1291;61100;-54
2024/01/03 11:52:48;;;;;;;5.20;1.60;;;;;;;8.71;98.98;98449.38;104506;1292;61139;-54
2024/01/03 11:55:35;;;;;;;6.30;2.00;;;;;;;8.76;98.77;98453.48;104705;1292;73467;-54
2024/01/03 11:58:21;;;;;;;4.00;1.40;;;;;;;8.78;98.52;98454.74;104774;1296;67188;-53
2024/01/03 12:01:08;;;;;;;3.00;1.60;;;;;;;8.78;98.09;98451.33;104675;1292;71165;-54
2024/01/03 12:04:08;;;;;;;6.80;1.90;;;;;;;8.80;98.18;98452.76;104764;1291;61273;-54
2024/01/03 12:06:58;;;;;;;5.10;1.40;;;;;;;8.81;98.16;98457.02;104704;1291;62730;-52
2024/01/03 12:09:44;;;;;;;3.40;1.50;;;;;;;8.79;98.09;98458.63;105373;1292;74992;-54
2024/01/03 12:12:32;;;;;;;3.60;1.70;;;;;;;8.80;98.28;98452.77;104697;1292;68394;-53
2024/01/03 12:15:22;;;;;;;5.00;1.80;;;;;;;8.81;98.14;98450.34;105452;1291;70719;-53
2024/01/03 12:18:08;;;;;;;4.40;1.50;;;;;;;8.81;97.75;98447.39;104751;1292;61203;-54
2024/01/03 12:20:54;;;;;;;4.50;1.40;;;;;;;8.85;97.70;98445.48;104702;1291;61213;-53
2024/01/03 12:23:54;;;;;;;3.70;1.50;;;;;;;8.87;97.60;98447.98;104633;1291;72640;-54
2024/01/03 12:26:48;;;;;;;6.20;1.30;;;;;;;8.88;97.23;98449.65;104753;1291;67893;-53
2024/01/03 12:29:35;;;;;;;4.70;1.40;;;;;;;8.92;98.00;98447.05;106071;1291;72379;-53
2024/01/03 12:32:21;;;;;;;3.10;1.70;;;;;;;8.94;97.18;98449.19;105145;1292;59836;-52
2024/01/03 12:35:08;;;;;;;2.50;1.40;;;;;;;8.95;96.59;98452.59;104699;1292;61402;-54
2024/01/03 12:37:54;;;;;;;3.20;1.50;;;;;;;8.96;96.44;98447.92;104750;1291;73469;-53
2024/01/03 12:40:40;;;;;;;2.10;1.20;;;;;;;8.96;96.00;98449.11;104752;1292;67201;-53
2024/01/03 12:43:26;;;;;;;4.50;1.70;;;;;;;9.01;95.81;98447.04;104721;1291;71840;-53
2024/01/03 12:46:13;;;;;;;3.70;1.70;;;;;;;9.04;95.78;98450.16;104688;1297;61155;-53
2024/01/03 12:48:59;;;;;;;3.60;1.10;;;;;;;9.06;96.40;98446.42;104725;1291;61279;-53
2024/01/03 12:51:45;;;;;;;3.00;1.50;;;;;;;9.07;95.85;98448.11;104674;1293;73248;-53
2024/01/03 12:54:32;;;;;;;2.30;1.20;;;;;;;9.08;95.78;98451.16;104713;1292;69277;-52
2024/01/03 12:57:19;;;;;;;4.40;1.40;;;;;;;9.08;95.44;98452.38;104687;1291;71418;-52
2024/01/03 13:00:06;;;;;;;4.40;1.30;;;;;;;9.09;95.87;98452.69;104680;1295;63545;-52